Terminal Aerodrome Forecast
Issued by NWS Wilmington, OH

Current Version | Previous Version | Graphics & Text | Print | Product List | Glossary On
Versions: 1 2 3 4 5 6 7 8 9 10 11 12 13 14 15 16 17 18 19
000
FTUS41 KILN 221700
TAFDAY
TAF
KDAY 221736Z 2218/2318 25008KT P6SM SCT040
     FM222300 24007KT P6SM SCT250
     FM231200 27007KT P6SM VCTS BKN040CB
     FM231500 32006KT P6SM VCTS BKN040CB=

USA.gov is the U.S. government's official web portal to all federal, state and local government web resources and services.